Time;durP1;ratioP1;P1;durP2;ratioP2;P2;SDS_P1;SDS_P2;PMS_P1;PMS_P2;Temp;Humidity;BMP_temperature;BMP_pressure;BME280_temperature;BME280_humidity;BME280_pressure;Samples;Min_cycle;Max_cycle;Signal;HPM_P1;HPM_P2
2023/04/11 00:00:52;;;;;;;2.05;1.60;;;;;;;;;;5052471;28;20460;-83
2023/04/11 00:03:21;;;;;;;1.77;1.50;;;;;;;;;;5052233;28;20735;-83
2023/04/11 00:05:47;;;;;;;1.60;1.50;;;;;;;;;;5052035;28;20428;-81
2023/04/11 00:08:13;;;;;;;2.60;1.50;;;;;;;;;;5052729;28;20424;-83
2023/04/11 00:10:39;;;;;;;1.55;1.30;;;;;;;;;;5044174;28;20382;-83
2023/04/11 00:13:06;;;;;;;2.60;1.40;;;;;;;;;;5052188;28;20388;-83
2023/04/11 00:15:32;;;;;;;2.78;1.55;;;;;;;;;;5051869;28;20381;-80
2023/04/11 00:17:58;;;;;;;1.40;1.30;;;;;;;;;;5051744;28;20815;-80
2023/04/11 00:20:24;;;;;;;1.70;1.35;;;;;;;;;;5052452;28;20385;-81
2023/04/11 00:22:52;;;;;;;1.90;1.70;;;;;;;;;;5052403;28;20858;-83
2023/04/11 00:25:18;;;;;;;2.45;1.52;;;;;;;;;;5051963;28;20373;-82
2023/04/11 00:27:44;;;;;;;2.30;2.03;;;;;;;;;;5051496;28;20461;-83
2023/04/11 00:30:11;;;;;;;3.40;1.90;;;;;;;;;;5052044;28;20845;-82
2023/04/11 00:32:37;;;;;;;2.15;1.90;;;;;;;;;;5051405;28;20444;-83
2023/04/11 00:35:03;;;;;;;2.15;1.70;;;;;;;;;;5052017;28;20392;-83
2023/04/11 00:37:30;;;;;;;1.83;1.60;;;;;;;;;;5051907;28;20384;-82
2023/04/11 00:39:56;;;;;;;2.17;1.73;;;;;;;;;;5052188;28;20441;-83
2023/04/11 00:42:22;;;;;;;1.98;1.77;;;;;;;;;;5051536;28;20408;-83
2023/04/11 00:44:48;;;;;;;2.50;1.80;;;;;;;;;;5052096;28;20400;-83
2023/04/11 00:47:14;;;;;;;1.90;1.33;;;;;;;;;;5050284;28;20882;-83
2023/04/11 00:49:40;;;;;;;1.93;1.63;;;;;;;;;;5051986;28;20399;-83
2023/04/11 00:52:06;;;;;;;1.60;1.50;;;;;;;;;;5051953;28;20477;-83
2023/04/11 00:54:33;;;;;;;1.67;1.50;;;;;;;;;;5051817;28;20404;-82
2023/04/11 00:57:00;;;;;;;1.42;1.33;;;;;;;;;;5051865;28;20511;-81
2023/04/11 00:59:27;;;;;;;1.45;1.35;;;;;;;;;;5051671;28;20405;-83
2023/04/11 01:01:53;;;;;;;2.40;1.40;;;;;;;;;;5051835;28;20382;-82
2023/04/11 01:04:20;;;;;;;3.05;1.50;;;;;;;;;;5051555;28;20742;-82
2023/04/11 01:06:48;;;;;;;1.83;1.58;;;;;;;;;;5051671;28;20604;-82
2023/04/11 01:09:15;;;;;;;1.83;1.60;;;;;;;;;;5044176;28;20394;-82
2023/04/11 01:11:41;;;;;;;1.77;1.33;;;;;;;;;;5050792;28;20464;-82
2023/04/11 01:14:07;;;;;;;1.35;1.00;;;;;;;;;;5045740;28;20391;-82
2023/04/11 01:16:33;;;;;;;0.90;0.85;;;;;;;;;;5043055;28;20459;-82
2023/04/11 01:18:59;;;;;;;1.60;1.00;;;;;;;;;;5031872;28;20434;-83
2023/04/11 01:21:26;;;;;;;1.40;1.25;;;;;;;;;;5032779;28;20375;-83
2023/04/11 01:23:53;;;;;;;1.50;0.90;;;;;;;;;;5050417;28;20439;-82
2023/04/11 01:26:19;;;;;;;1.20;1.10;;;;;;;;;;5051207;28;20377;-81
2023/04/11 01:28:45;;;;;;;1.63;1.10;;;;;;;;;;5049049;28;20397;-81
2023/04/11 01:31:11;;;;;;;2.75;1.15;;;;;;;;;;5046875;28;20450;-82
2023/04/11 01:33:37;;;;;;;3.83;1.20;;;;;;;;;;5045533;28;20385;-83
2023/04/11 01:36:03;;;;;;;1.63;1.20;;;;;;;;;;5049144;28;20416;-83
2023/04/11 01:38:29;;;;;;;2.42;1.02;;;;;;;;;;5049294;28;20413;-83
2023/04/11 01:40:57;;;;;;;3.08;1.20;;;;;;;;;;5046458;28;20385;-82
2023/04/11 01:43:23;;;;;;;2.03;1.10;;;;;;;;;;5050910;28;20468;-81
2023/04/11 01:45:49;;;;;;;1.65;1.20;;;;;;;;;;5045924;28;20389;-82
2023/04/11 01:48:15;;;;;;;1.27;1.17;;;;;;;;;;5045833;28;20392;-82
2023/04/11 01:50:41;;;;;;;1.70;1.20;;;;;;;;;;5037644;28;20411;-82
2023/04/11 01:53:07;;;;;;;1.27;1.13;;;;;;;;;;5044239;28;20892;-82
2023/04/11 01:55:33;;;;;;;1.63;1.10;;;;;;;;;;5036655;28;20387;-82
2023/04/11 01:57:59;;;;;;;2.85;1.10;;;;;;;;;;5048938;28;20412;-82
2023/04/11 02:00:25;;;;;;;1.70;1.20;;;;;;;;;;5034091;28;20465;-81
2023/04/11 02:02:51;;;;;;;1.80;1.05;;;;;;;;;;5047406;28;20795;-81
2023/04/11 02:05:17;;;;;;;1.47;1.00;;;;;;;;;;5050216;28;20503;-81
2023/04/11 02:07:43;;;;;;;1.10;1.00;;;;;;;;;;5054266;28;20381;-82
2023/04/11 02:10:10;;;;;;;1.10;1.00;;;;;;;;;;5053709;28;20385;-81
2023/04/11 02:12:35;;;;;;;0.90;0.90;;;;;;;;;;5051714;28;20381;-82
2023/04/11 02:15:01;;;;;;;2.40;1.30;;;;;;;;;;5044009;28;20476;-82
2023/04/11 02:17:29;;;;;;;1.50;1.20;;;;;;;;;;5042660;28;20380;-82
2023/04/11 02:19:56;;;;;;;2.30;1.10;;;;;;;;;;5047215;28;20743;-82
2023/04/11 02:22:22;;;;;;;1.20;1.10;;;;;;;;;;5050882;28;20380;-81
2023/04/11 02:24:50;;;;;;;1.85;1.13;;;;;;;;;;5051345;28;20369;-81
2023/04/11 02:27:16;;;;;;;1.98;1.10;;;;;;;;;;5051904;28;20781;-84
2023/04/11 02:29:42;;;;;;;2.30;1.20;;;;;;;;;;5052807;28;20388;-81
2023/04/11 02:32:08;;;;;;;1.98;1.25;;;;;;;;;;5053964;28;20389;-81
2023/04/11 02:34:34;;;;;;;2.20;1.20;;;;;;;;;;5054554;28;20414;-82
2023/04/11 02:37:00;;;;;;;2.38;1.38;;;;;;;;;;5054232;28;20388;-82
2023/04/11 02:39:26;;;;;;;2.10;1.00;;;;;;;;;;5054053;28;20405;-82
2023/04/11 02:41:52;;;;;;;2.38;1.20;;;;;;;;;;5054433;28;20405;-82
2023/04/11 02:44:19;;;;;;;1.17;1.05;;;;;;;;;;5053127;28;20876;-82
2023/04/11 02:46:45;;;;;;;1.37;1.00;;;;;;;;;;5054762;28;20404;-82
2023/04/11 02:49:11;;;;;;;1.20;1.10;;;;;;;;;;5054395;28;20839;-82
2023/04/11 02:51:37;;;;;;;2.60;1.38;;;;;;;;;;5054424;28;20402;-82
2023/04/11 02:54:04;;;;;;;3.88;1.48;;;;;;;;;;5054318;28;20389;-83
2023/04/11 02:56:32;;;;;;;1.98;1.70;;;;;;;;;;5054042;28;20381;-82
2023/04/11 02:58:58;;;;;;;2.40;2.20;;;;;;;;;;5053835;28;20405;-83
2023/04/11 03:01:25;;;;;;;4.00;1.63;;;;;;;;;;5054053;28;20376;-81
2023/04/11 03:03:51;;;;;;;2.67;1.30;;;;;;;;;;5053724;28;20380;-82
2023/04/11 03:06:17;;;;;;;3.30;1.30;;;;;;;;;;5053976;28;20378;-84
2023/04/11 03:08:43;;;;;;;2.28;1.20;;;;;;;;;;5050754;28;20387;-83
2023/04/11 03:11:09;;;;;;;1.98;1.40;;;;;;;;;;5048354;28;20381;-80
2023/04/11 03:13:36;;;;;;;2.88;1.58;;;;;;;;;;5054082;28;20382;-81
2023/04/11 03:16:02;;;;;;;2.60;1.60;;;;;;;;;;5053893;28;20374;-81
2023/04/11 03:18:28;;;;;;;2.08;1.45;;;;;;;;;;5053486;28;20408;-83
2023/04/11 03:20:54;;;;;;;1.55;1.38;;;;;;;;;;5053765;28;20381;-83
2023/04/11 03:23:20;;;;;;;2.15;1.40;;;;;;;;;;5053305;28;20708;-81
2023/04/11 03:25:47;;;;;;;3.65;1.45;;;;;;;;;;5053296;28;20834;-84
2023/04/11 03:28:14;;;;;;;2.00;1.52;;;;;;;;;;5053564;28;20388;-82
2023/04/11 03:30:41;;;;;;;2.57;1.50;;;;;;;;;;5052129;28;20855;-81
2023/04/11 03:33:07;;;;;;;2.55;1.38;;;;;;;;;;5051756;28;20456;-82
2023/04/11 03:35:33;;;;;;;1.60;1.30;;;;;;;;;;5052936;28;20378;-83
2023/04/11 03:37:59;;;;;;;3.10;1.52;;;;;;;;;;5052773;28;20843;-83
2023/04/11 03:40:25;;;;;;;2.08;1.45;;;;;;;;;;5052991;28;20401;-83
2023/04/11 03:42:51;;;;;;;3.23;1.87;;;;;;;;;;5053144;28;20435;-83
2023/04/11 03:45:17;;;;;;;1.60;1.50;;;;;;;;;;5053333;28;20385;-83
2023/04/11 03:47:43;;;;;;;1.58;1.40;;;;;;;;;;5053084;28;20381;-82
2023/04/11 03:50:09;;;;;;;1.60;1.13;;;;;;;;;;5053338;28;20439;-82
2023/04/11 03:52:36;;;;;;;1.60;1.20;;;;;;;;;;5052625;28;20400;-83
2023/04/11 03:55:02;;;;;;;1.83;1.30;;;;;;;;;;5053048;28;20382;-83
2023/04/11 03:57:28;;;;;;;1.85;1.17;;;;;;;;;;5053189;28;20377;-82
2023/04/11 03:59:55;;;;;;;1.58;1.17;;;;;;;;;;5053008;28;20752;-83
2023/04/11 04:02:21;;;;;;;2.65;1.40;;;;;;;;;;5052931;28;20377;-81
2023/04/11 04:04:53;;;;;;;2.13;1.30;;;;;;;;;;5052703;28;20385;-81
2023/04/11 04:07:21;;;;;;;1.95;1.45;;;;;;;;;;5052971;28;20394;-81
2023/04/11 04:09:47;;;;;;;1.40;1.25;;;;;;;;;;5044170;28;20855;-82
2023/04/11 04:12:13;;;;;;;2.05;1.20;;;;;;;;;;5051304;28;20392;-82
2023/04/11 04:14:39;;;;;;;1.60;1.13;;;;;;;;;;5052532;28;20389;-82
2023/04/11 04:17:05;;;;;;;1.30;1.08;;;;;;;;;;5048396;28;20401;-82
2023/04/11 04:19:31;;;;;;;2.00;1.20;;;;;;;;;;5040397;28;20916;-82
2023/04/11 04:21:57;;;;;;;1.17;1.00;;;;;;;;;;5044723;28;20418;-82
2023/04/11 04:24:28;;;;;;;0.97;0.87;;;;;;;;;;5032393;28;20383;-83
2023/04/11 04:26:56;;;;;;;1.35;1.10;;;;;;;;;;5046246;28;20413;-83
2023/04/11 04:29:22;;;;;;;1.48;1.10;;;;;;;;;;5052031;28;20739;-81
2023/04/11 04:31:51;;;;;;;1.63;1.00;;;;;;;;;;5050949;28;20377;-80
2023/04/11 04:34:20;;;;;;;1.73;1.20;;;;;;;;;;5051543;28;20381;-82
2023/04/11 04:36:46;;;;;;;1.50;1.00;;;;;;;;;;5051483;28;20485;-82
2023/04/11 04:39:16;;;;;;;1.00;0.70;;;;;;;;;;5051549;28;20413;-83
2023/04/11 04:41:56;;;;;;;1.75;0.80;;;;;;;;;;5051089;28;20748;-83
2023/04/11 04:44:22;;;;;;;1.10;0.90;;;;;;;;;;5038123;28;20377;-82
2023/04/11 04:46:52;;;;;;;0.85;0.80;;;;;;;;;;5051566;28;20419;-82
2023/04/11 04:49:18;;;;;;;1.10;0.90;;;;;;;;;;5051124;28;20447;-82
2023/04/11 04:51:44;;;;;;;2.10;0.80;;;;;;;;;;5050965;28;20747;-82
2023/04/11 04:54:10;;;;;;;1.52;1.02;;;;;;;;;;5051718;28;20448;-82
2023/04/11 04:56:36;;;;;;;1.70;1.00;;;;;;;;;;5051606;28;20397;-81
2023/04/11 04:59:02;;;;;;;2.07;1.00;;;;;;;;;;5047545;28;20405;-81
2023/04/11 05:01:28;;;;;;;1.30;0.93;;;;;;;;;;5051465;28;20385;-83
2023/04/11 05:03:58;;;;;;;1.25;0.90;;;;;;;;;;5047723;28;20911;-83
2023/04/11 05:06:26;;;;;;;2.20;1.00;;;;;;;;;;5055386;28;20377;-81
2023/04/11 05:08:53;;;;;;;2.00;1.10;;;;;;;;;;5051000;28;20381;-81
2023/04/11 05:11:19;;;;;;;1.13;1.00;;;;;;;;;;5045950;28;20870;-81
2023/04/11 05:13:45;;;;;;;1.90;0.90;;;;;;;;;;5047513;28;20424;-83
2023/04/11 05:16:11;;;;;;;1.80;0.82;;;;;;;;;;5049457;28;20863;-82
2023/04/11 05:18:37;;;;;;;1.00;0.70;;;;;;;;;;5051371;28;20417;-82
2023/04/11 05:21:04;;;;;;;1.40;0.98;;;;;;;;;;5051621;28;20388;-80
2023/04/11 05:23:30;;;;;;;1.50;0.80;;;;;;;;;;5050938;28;20382;-79
2023/04/11 05:25:56;;;;;;;2.60;0.88;;;;;;;;;;5052035;28;20511;-80
2023/04/11 05:28:22;;;;;;;2.40;0.98;;;;;;;;;;5053212;28;20403;-80
2023/04/11 05:30:48;;;;;;;1.35;0.90;;;;;;;;;;5052723;28;20381;-80
2023/04/11 05:33:14;;;;;;;1.85;1.00;;;;;;;;;;5052012;28;20934;-82
2023/04/11 05:35:40;;;;;;;2.55;1.10;;;;;;;;;;5052233;28;21262;-79
2023/04/11 05:38:06;;;;;;;1.70;0.80;;;;;;;;;;5044844;28;20398;-78
2023/04/11 05:40:32;;;;;;;1.25;0.90;;;;;;;;;;5046776;28;20394;-80
2023/04/11 05:42:58;;;;;;;1.17;0.75;;;;;;;;;;5051040;28;20409;-83
2023/04/11 05:45:24;;;;;;;1.20;0.70;;;;;;;;;;5050346;28;20377;-83
2023/04/11 05:47:50;;;;;;;1.73;0.82;;;;;;;;;;5048760;28;20827;-83
2023/04/11 05:50:16;;;;;;;2.58;1.02;;;;;;;;;;5044848;28;20393;-83
2023/04/11 05:52:42;;;;;;;1.67;1.00;;;;;;;;;;5042706;28;20959;-82
2023/04/11 05:55:08;;;;;;;1.50;0.90;;;;;;;;;;5042956;28;20393;-82
2023/04/11 05:57:34;;;;;;;1.23;0.63;;;;;;;;;;5038169;28;20907;-83
2023/04/11 06:00:00;;;;;;;1.77;0.82;;;;;;;;;;5047004;28;20413;-84
2023/04/11 06:02:29;;;;;;;1.70;0.80;;;;;;;;;;5043005;28;20475;-84
2023/04/11 06:04:55;;;;;;;1.80;1.00;;;;;;;;;;5046761;28;20860;-84
2023/04/11 06:07:21;;;;;;;1.40;0.87;;;;;;;;;;5055456;28;20427;-84
2023/04/11 06:09:48;;;;;;;1.38;0.88;;;;;;;;;;5052542;28;20859;-82
2023/04/11 06:12:13;;;;;;;1.60;0.80;;;;;;;;;;5052321;28;20381;-83
2023/04/11 06:14:40;;;;;;;2.17;0.80;;;;;;;;;;5046855;28;20379;-82
2023/04/11 06:17:06;;;;;;;1.77;0.80;;;;;;;;;;5049715;28;20385;-84
2023/04/11 06:19:32;;;;;;;0.87;0.70;;;;;;;;;;5051420;28;20774;-81
2023/04/11 06:21:57;;;;;;;1.27;0.80;;;;;;;;;;5054685;28;20423;-84
2023/04/11 06:24:37;;;;;;;1.30;0.80;;;;;;;;;;5056225;28;20954;-83
2023/04/11 06:27:03;;;;;;;1.48;0.65;;;;;;;;;;5054529;28;20743;-83
2023/04/11 06:29:29;;;;;;;1.42;0.50;;;;;;;;;;5054811;28;20885;-81
2023/04/11 06:31:55;;;;;;;1.15;0.20;;;;;;;;;;5054369;28;20390;-82
2023/04/11 06:34:21;;;;;;;0.30;0.20;;;;;;;;;;5052883;28;20387;-80
2023/04/11 06:36:48;;;;;;;0.97;0.33;;;;;;;;;;5053680;28;20468;-80
2023/04/11 06:39:17;;;;;;;0.50;0.20;;;;;;;;;;5051679;28;20409;-79
2023/04/11 06:41:43;;;;;;;0.17;0.17;;;;;;;;;;5052955;28;20484;-80
2023/04/11 06:44:09;;;;;;;0.32;0.20;;;;;;;;;;5053184;28;20377;-80
2023/04/11 06:46:35;;;;;;;0.20;0.20;;;;;;;;;;5054323;28;20858;-79
2023/04/11 06:49:02;;;;;;;0.52;0.30;;;;;;;;;;5054290;28;20374;-81
2023/04/11 06:51:28;;;;;;;0.95;0.40;;;;;;;;;;5053409;28;20378;-81
2023/04/11 06:53:54;;;;;;;0.45;0.40;;;;;;;;;;5050881;28;20386;-80
2023/04/11 06:56:20;;;;;;;0.40;0.30;;;;;;;;;;5045580;28;20858;-81
2023/04/11 06:58:46;;;;;;;0.28;0.22;;;;;;;;;;5039161;28;20464;-82
2023/04/11 07:01:13;;;;;;;0.40;0.30;;;;;;;;;;5050372;28;20416;-82
2023/04/11 07:03:39;;;;;;;0.40;0.20;;;;;;;;;;5043923;28;20377;-81
2023/04/11 07:06:06;;;;;;;0.20;0.20;;;;;;;;;;5039971;28;20865;-79
2023/04/11 07:08:32;;;;;;;4.20;2.88;;;;;;;;;;5040379;28;20743;-79
2023/04/11 07:10:58;;;;;;;0.37;0.33;;;;;;;;;;5053357;28;20527;-80
2023/04/11 07:13:24;;;;;;;0.43;0.20;;;;;;;;;;5046367;28;20382;-79
2023/04/11 07:15:50;;;;;;;0.30;0.30;;;;;;;;;;5048060;28;20389;-80
2023/04/11 07:18:16;;;;;;;1.13;1.00;;;;;;;;;;5041811;28;20467;-79
2023/04/11 07:20:42;;;;;;;5.25;4.75;;;;;;;;;;5034715;28;20429;-80
2023/04/11 07:23:08;;;;;;;1.80;1.58;;;;;;;;;;5045226;28;20396;-80
2023/04/11 07:25:35;;;;;;;2.60;2.40;;;;;;;;;;5044350;28;20389;-82
2023/04/11 07:28:07;;;;;;;0.70;0.70;;;;;;;;;;5051917;28;20369;-82
2023/04/11 07:30:33;;;;;;;2.03;1.92;;;;;;;;;;5049256;28;20392;-80
2023/04/11 07:32:59;;;;;;;0.40;0.20;;;;;;;;;;5044943;28;20742;-79
2023/04/11 07:35:25;;;;;;;0.10;0.10;;;;;;;;;;5048311;28;20451;-80
2023/04/11 07:37:52;;;;;;;0.17;0.10;;;;;;;;;;5052998;28;20781;-80
2023/04/11 07:40:18;;;;;;;0.15;0.10;;;;;;;;;;5053498;28;20411;-81
2023/04/11 07:42:45;;;;;;;0.32;0.20;;;;;;;;;;5052466;28;20817;-81
2023/04/11 07:45:11;;;;;;;0.20;0.10;;;;;;;;;;5052507;28;20377;-81
2023/04/11 07:47:37;;;;;;;0.30;0.30;;;;;;;;;;5043868;28;20472;-81
2023/04/11 07:50:04;;;;;;;0.47;0.30;;;;;;;;;;5038092;28;20802;-81
2023/04/11 07:52:30;;;;;;;0.45;0.20;;;;;;;;;;5036620;28;20474;-80
2023/04/11 07:54:56;;;;;;;0.40;0.20;;;;;;;;;;5037192;28;20422;-81
2023/04/11 07:57:22;;;;;;;0.22;0.20;;;;;;;;;;5039878;28;20740;-81
2023/04/11 07:59:48;;;;;;;0.40;0.25;;;;;;;;;;5041008;28;20908;-80
2023/04/11 08:02:14;;;;;;;0.93;0.30;;;;;;;;;;5046709;28;20898;-81
2023/04/11 08:04:40;;;;;;;0.70;0.40;;;;;;;;;;5051333;28;20385;-81
2023/04/11 08:07:07;;;;;;;0.22;0.22;;;;;;;;;;5047856;28;20647;-81
2023/04/11 08:09:33;;;;;;;0.50;0.30;;;;;;;;;;5046476;28;20373;-80
2023/04/11 08:12:00;;;;;;;0.98;0.32;;;;;;;;;;5047930;28;20813;-81
2023/04/11 08:14:26;;;;;;;0.95;0.30;;;;;;;;;;5052636;28;20385;-80
2023/04/11 08:16:52;;;;;;;0.60;0.40;;;;;;;;;;5078361;22;20437;-82
2023/04/11 08:19:18;;;;;;;1.15;0.47;;;;;;;;;;5076472;28;20535;-81
2023/04/11 08:21:44;;;;;;;0.50;0.30;;;;;;;;;;5086991;28;20840;-81
2023/04/11 08:24:10;;;;;;;0.95;0.40;;;;;;;;;;5069970;28;20889;-81
2023/04/11 08:26:36;;;;;;;0.80;0.40;;;;;;;;;;5057803;28;20413;-81
2023/04/11 08:29:02;;;;;;;0.95;0.50;;;;;;;;;;5054848;28;20428;-81
2023/04/11 08:31:28;;;;;;;1.20;0.70;;;;;;;;;;5065791;28;20941;-80
2023/04/11 08:33:55;;;;;;;1.30;0.50;;;;;;;;;;5057969;28;20734;-80
2023/04/11 08:36:21;;;;;;;0.90;0.40;;;;;;;;;;5049967;28;20385;-80
2023/04/11 08:38:47;;;;;;;1.13;0.60;;;;;;;;;;5056568;28;20489;-80
2023/04/11 08:41:13;;;;;;;1.40;0.47;;;;;;;;;;5064263;28;20387;-81
2023/04/11 08:43:39;;;;;;;1.58;0.40;;;;;;;;;;5050333;28;20376;-80
2023/04/11 08:46:11;;;;;;;1.67;0.70;;;;;;;;;;5059135;28;20380;-80
2023/04/11 08:48:38;;;;;;;0.93;0.70;;;;;;;;;;5049823;28;20390;-80
2023/04/11 08:51:04;;;;;;;1.33;0.63;;;;;;;;;;5070724;28;20473;-80
2023/04/11 08:53:31;;;;;;;1.67;0.80;;;;;;;;;;5058250;28;20468;-80
2023/04/11 08:55:58;;;;;;;1.65;0.70;;;;;;;;;;5075106;28;20909;-80
2023/04/11 08:58:24;;;;;;;1.75;0.60;;;;;;;;;;5056451;28;20397;-79
2023/04/11 09:00:50;;;;;;;1.13;0.47;;;;;;;;;;5058271;28;20381;-80
2023/04/11 09:03:16;;;;;;;2.80;0.60;;;;;;;;;;5063930;28;20376;-80
2023/04/11 09:05:45;;;;;;;2.22;0.60;;;;;;;;;;5058630;28;20882;-80
2023/04/11 09:08:12;;;;;;;0.90;0.53;;;;;;;;;;5062420;28;20484;-80
2023/04/11 09:10:39;;;;;;;0.80;0.40;;;;;;;;;;5058974;28;20385;-80
2023/04/11 09:13:24;;;;;;;2.63;0.65;;;;;;;;;;5060534;28;20385;-80
2023/04/11 09:16:20;;;;;;;1.08;0.50;;;;;;;;;;5058765;28;20437;-80
2023/04/11 09:18:46;;;;;;;0.98;0.60;;;;;;;;;;5048214;28;20416;-79
2023/04/11 09:21:13;;;;;;;1.80;0.52;;;;;;;;;;5057872;28;20472;-80
2023/04/11 09:23:39;;;;;;;2.42;0.50;;;;;;;;;;5054868;28;20474;-79
2023/04/11 09:26:06;;;;;;;1.63;0.50;;;;;;;;;;5049483;28;20416;-79
2023/04/11 09:28:43;;;;;;;1.00;0.40;;;;;;;;;;5049308;28;20746;-80
2023/04/11 09:31:11;;;;;;;1.85;0.47;;;;;;;;;;5067955;28;20393;-81
2023/04/11 09:33:37;;;;;;;1.75;0.63;;;;;;;;;;5051779;28;20397;-81
2023/04/11 09:36:16;;;;;;;1.60;0.60;;;;;;;;;;5050945;28;20386;-81
2023/04/11 09:38:43;;;;;;;1.90;0.50;;;;;;;;;;5043595;28;20501;-82
2023/04/11 09:41:09;;;;;;;1.52;0.47;;;;;;;;;;5041777;28;20376;-82
2023/04/11 09:43:50;;;;;;;0.90;0.50;;;;;;;;;;5059490;28;20710;-83
2023/04/11 09:46:19;;;;;;;2.65;0.40;;;;;;;;;;5066991;28;20379;-80
2023/04/11 09:48:45;;;;;;;0.93;0.40;;;;;;;;;;5051513;28;20395;-82
2023/04/11 09:51:11;;;;;;;1.92;0.70;;;;;;;;;;5060068;28;20431;-82
2023/04/11 09:53:37;;;;;;;1.02;0.40;;;;;;;;;;5057593;28;20755;-82
2023/04/11 09:56:07;;;;;;;1.17;0.50;;;;;;;;;;5059994;28;20385;-83
2023/04/11 09:58:35;;;;;;;1.95;0.60;;;;;;;;;;5059073;28;20401;-80
2023/04/11 10:01:01;;;;;;;1.70;0.60;;;;;;;;;;5061548;28;20391;-80
2023/04/11 10:03:27;;;;;;;1.70;0.68;;;;;;;;;;5068041;28;20425;-81
2023/04/11 10:05:54;;;;;;;3.38;0.80;;;;;;;;;;5063038;28;20392;-81
2023/04/11 10:08:29;;;;;;;2.75;0.77;;;;;;;;;;5063469;28;20412;-81
2023/04/11 10:10:55;;;;;;;1.88;0.70;;;;;;;;;;5049766;28;20389;-80
2023/04/11 10:13:40;;;;;;;1.70;0.60;;;;;;;;;;5046881;28;20383;-82
2023/04/11 10:16:07;;;;;;;1.52;0.63;;;;;;;;;;5044794;28;20404;-82
2023/04/11 10:18:33;;;;;;;2.75;0.70;;;;;;;;;;5037852;28;20888;-81
2023/04/11 10:21:00;;;;;;;1.95;1.00;;;;;;;;;;5038442;28;20856;-80
2023/04/11 10:23:26;;;;;;;2.50;1.00;;;;;;;;;;5048588;28;20385;-80
2023/04/11 10:25:58;;;;;;;1.88;0.90;;;;;;;;;;5074941;28;20380;-80
2023/04/11 10:28:31;;;;;;;2.90;0.80;;;;;;;;;;5057980;28;20401;-80
2023/04/11 10:31:04;;;;;;;2.60;1.05;;;;;;;;;;5061537;28;20445;-81
2023/04/11 10:33:31;;;;;;;2.40;0.90;;;;;;;;;;5042642;28;20747;-80
2023/04/11 10:36:10;;;;;;;2.15;1.00;;;;;;;;;;5051046;28;20437;-80
2023/04/11 10:38:36;;;;;;;1.67;0.98;;;;;;;;;;5051956;28;20785;-79
2023/04/11 10:41:21;;;;;;;2.33;1.00;;;;;;;;;;5062642;28;20388;-80
2023/04/11 10:43:48;;;;;;;2.95;0.95;;;;;;;;;;5065732;28;20417;-80
2023/04/11 10:46:20;;;;;;;2.15;0.90;;;;;;;;;;5065935;28;20710;-80
2023/04/11 10:48:57;;;;;;;2.70;0.93;;;;;;;;;;5066849;28;20775;-80
2023/04/11 10:51:24;;;;;;;6.05;1.20;;;;;;;;;;5085771;28;20396;-81
2023/04/11 10:53:51;;;;;;;2.83;1.20;;;;;;;;;;5068800;28;20441;-81
2023/04/11 10:56:37;;;;;;;3.47;1.00;;;;;;;;;;5081244;28;20395;-80
2023/04/11 10:59:03;;;;;;;3.20;0.98;;;;;;;;;;5060915;28;20404;-80
2023/04/11 11:01:29;;;;;;;3.33;1.00;;;;;;;;;;5066120;28;20425;-80
2023/04/11 11:03:55;;;;;;;3.08;1.10;;;;;;;;;;5063624;28;20376;-80
2023/04/11 11:06:22;;;;;;;2.72;1.20;;;;;;;;;;5079206;28;20391;-81
2023/04/11 11:08:48;;;;;;;2.85;1.10;;;;;;;;;;5048901;28;20462;-79
2023/04/11 11:11:18;;;;;;;3.38;1.13;;;;;;;;;;5043324;28;20399;-80
2023/04/11 11:13:47;;;;;;;2.78;1.13;;;;;;;;;;5049389;28;20391;-80
2023/04/11 11:16:17;;;;;;;2.75;1.30;;;;;;;;;;5048126;28;20805;-81
2023/04/11 11:18:45;;;;;;;3.43;1.20;;;;;;;;;;5067439;28;20438;-79
2023/04/11 11:21:12;;;;;;;4.53;1.20;;;;;;;;;;5064461;28;20769;-80
2023/04/11 11:23:38;;;;;;;3.10;1.20;;;;;;;;;;5057716;28;20432;-80
2023/04/11 11:26:05;;;;;;;3.40;1.27;;;;;;;;;;5072677;28;20865;-79
2023/04/11 11:28:31;;;;;;;2.58;1.23;;;;;;;;;;5046050;28;20884;-80
2023/04/11 11:30:57;;;;;;;3.80;1.05;;;;;;;;;;5049168;28;20782;-80
2023/04/11 11:33:25;;;;;;;3.55;1.15;;;;;;;;;;5059499;28;20391;-80
2023/04/11 11:35:54;;;;;;;3.60;1.20;;;;;;;;;;5050022;28;20406;-80
2023/04/11 11:38:21;;;;;;;4.22;1.10;;;;;;;;;;5033951;28;20383;-80
2023/04/11 11:40:48;;;;;;;2.95;1.00;;;;;;;;;;5063779;28;20440;-80
2023/04/11 11:43:15;;;;;;;7.20;1.42;;;;;;;;;;5068910;28;20387;-80
2023/04/11 11:45:41;;;;;;;3.85;1.27;;;;;;;;;;5059395;28;20489;-79
2023/04/11 11:48:07;;;;;;;3.33;1.20;;;;;;;;;;5063850;28;20398;-79
2023/04/11 11:50:33;;;;;;;2.23;1.13;;;;;;;;;;5064891;28;20388;-79
2023/04/11 11:53:15;;;;;;;4.72;1.30;;;;;;;;;;5067575;28;20395;-80
2023/04/11 11:55:42;;;;;;;3.58;1.20;;;;;;;;;;5063035;28;20894;-79
2023/04/11 11:58:08;;;;;;;3.53;1.30;;;;;;;;;;5055950;28;20459;-80
2023/04/11 12:00:38;;;;;;;3.33;1.10;;;;;;;;;;5064371;28;20758;-80
2023/04/11 12:03:05;;;;;;;4.30;1.15;;;;;;;;;;5065588;28;20382;-80
2023/04/11 12:05:32;;;;;;;3.65;1.10;;;;;;;;;;5065474;28;20379;-80
2023/04/11 12:07:59;;;;;;;5.45;1.45;;;;;;;;;;5063696;28;20384;-80
2023/04/11 12:10:38;;;;;;;3.70;1.20;;;;;;;;;;5063978;28;20861;-80
2023/04/11 12:13:19;;;;;;;4.90;1.20;;;;;;;;;;5063745;28;20832;-80
2023/04/11 12:15:49;;;;;;;2.50;1.23;;;;;;;;;;5048680;28;20983;-80
2023/04/11 12:18:15;;;;;;;4.35;1.40;;;;;;;;;;5044000;28;20437;-80
2023/04/11 12:20:41;;;;;;;3.33;1.90;;;;;;;;;;5035951;28;20434;-80
2023/04/11 12:23:07;;;;;;;4.07;1.60;;;;;;;;;;5045117;28;20421;-80
2023/04/11 12:25:33;;;;;;;4.95;1.50;;;;;;;;;;5065161;28;20372;-80
2023/04/11 12:27:59;;;;;;;4.67;1.23;;;;;;;;;;5067238;28;20775;-80
2023/04/11 12:30:25;;;;;;;2.08;1.08;;;;;;;;;;5053654;28;20379;-79
2023/04/11 12:32:51;;;;;;;3.20;1.13;;;;;;;;;;5062764;28;20385;-80
2023/04/11 12:35:17;;;;;;;4.13;1.08;;;;;;;;;;5063919;28;20391;-80
2023/04/11 12:37:43;;;;;;;4.95;1.27;;;;;;;;;;5067782;28;20832;-81
2023/04/11 12:40:12;;;;;;;2.97;1.13;;;;;;;;;;5070485;28;20400;-80
2023/04/11 12:42:38;;;;;;;3.00;1.03;;;;;;;;;;5054048;28;20375;-80
2023/04/11 12:45:06;;;;;;;4.13;1.40;;;;;;;;;;5058738;28;20411;-80
2023/04/11 12:47:32;;;;;;;3.47;1.00;;;;;;;;;;5059966;28;20376;-80
2023/04/11 12:49:58;;;;;;;2.92;1.17;;;;;;;;;;5062126;28;20522;-80
2023/04/11 12:52:24;;;;;;;3.57;1.20;;;;;;;;;;5058342;28;20457;-80
2023/04/11 12:54:50;;;;;;;3.78;1.30;;;;;;;;;;5059896;28;20859;-80
2023/04/11 12:57:16;;;;;;;3.83;1.10;;;;;;;;;;5057983;28;20381;-80
2023/04/11 12:59:42;;;;;;;3.50;1.30;;;;;;;;;;5057932;28;20467;-79
2023/04/11 13:02:08;;;;;;;4.03;1.40;;;;;;;;;;5057965;28;20380;-80
2023/04/11 13:04:34;;;;;;;4.00;1.13;;;;;;;;;;5060438;28;20392;-80
2023/04/11 13:07:00;;;;;;;4.63;1.20;;;;;;;;;;5061473;28;20449;-81
2023/04/11 13:09:33;;;;;;;2.87;1.03;;;;;;;;;;5057626;28;20988;-80
2023/04/11 13:12:00;;;;;;;3.67;1.27;;;;;;;;;;5061956;28;20386;-80
2023/04/11 13:14:26;;;;;;;4.15;1.33;;;;;;;;;;5057781;28;20392;-80
2023/04/11 13:16:53;;;;;;;3.38;1.40;;;;;;;;;;5058068;28;20463;-80
2023/04/11 13:19:19;;;;;;;3.35;1.15;;;;;;;;;;5057593;28;20496;-80
2023/04/11 13:21:45;;;;;;;3.63;1.10;;;;;;;;;;5061572;28;20733;-80
2023/04/11 13:24:11;;;;;;;3.47;1.27;;;;;;;;;;5051013;28;20378;-80
2023/04/11 13:26:38;;;;;;;2.88;1.23;;;;;;;;;;5051199;28;20427;-80
2023/04/11 13:29:04;;;;;;;3.25;1.35;;;;;;;;;;5051349;28;20460;-80
2023/04/11 13:31:30;;;;;;;3.07;1.00;;;;;;;;;;5051343;28;20826;-80
2023/04/11 13:33:56;;;;;;;3.77;1.20;;;;;;;;;;5051225;28;20746;-80
2023/04/11 13:36:23;;;;;;;3.75;1.30;;;;;;;;;;5051193;28;20385;-80
2023/04/11 13:38:50;;;;;;;3.90;1.10;;;;;;;;;;5049706;28;20402;-80
2023/04/11 13:41:16;;;;;;;3.72;1.30;;;;;;;;;;5051240;28;20435;-80
2023/04/11 13:43:42;;;;;;;3.30;1.30;;;;;;;;;;5051273;28;20416;-80
2023/04/11 13:46:08;;;;;;;3.35;1.17;;;;;;;;;;5050914;28;20389;-80
2023/04/11 13:48:34;;;;;;;3.17;1.30;;;;;;;;;;5051174;28;20377;-80
2023/04/11 13:51:00;;;;;;;2.73;1.10;;;;;;;;;;5051027;28;20385;-80
2023/04/11 13:53:26;;;;;;;3.85;1.25;;;;;;;;;;5051168;28;20377;-80
2023/04/11 13:55:52;;;;;;;3.28;1.23;;;;;;;;;;5049610;28;20887;-80
2023/04/11 13:58:18;;;;;;;3.00;1.10;;;;;;;;;;5051049;28;20393;-80
2023/04/11 14:00:45;;;;;;;4.47;1.30;;;;;;;;;;5051005;28;20401;-80
2023/04/11 14:03:11;;;;;;;3.70;1.25;;;;;;;;;;5050875;28;20378;-80
2023/04/11 14:05:38;;;;;;;3.15;1.30;;;;;;;;;;5050925;28;20439;-79
2023/04/11 14:08:05;;;;;;;2.92;1.38;;;;;;;;;;5050882;28;20378;-80
2023/04/11 14:10:31;;;;;;;3.78;1.35;;;;;;;;;;5050920;28;20751;-80
2023/04/11 14:12:57;;;;;;;2.60;1.20;;;;;;;;;;5050795;28;20385;-80
2023/04/11 14:15:23;;;;;;;3.80;1.23;;;;;;;;;;5050635;28;20398;-80
2023/04/11 14:17:49;;;;;;;3.47;1.10;;;;;;;;;;5050931;28;20716;-80
2023/04/11 14:20:15;;;;;;;4.38;1.30;;;;;;;;;;5050682;28;20412;-80
2023/04/11 14:22:44;;;;;;;3.22;1.20;;;;;;;;;;5050404;28;20401;-80
2023/04/11 14:25:12;;;;;;;4.03;1.38;;;;;;;;;;5054216;28;20866;-80
2023/04/11 14:27:39;;;;;;;3.00;1.30;;;;;;;;;;5054305;28;20373;-80
2023/04/11 14:30:05;;;;;;;2.95;1.20;;;;;;;;;;5053322;28;20401;-80
2023/04/11 14:32:31;;;;;;;2.85;1.35;;;;;;;;;;5054400;28;20385;-80
2023/04/11 14:34:59;;;;;;;3.03;1.23;;;;;;;;;;5054404;28;20483;-80
2023/04/11 14:37:25;;;;;;;3.25;1.10;;;;;;;;;;5054618;28;20464;-80
2023/04/11 14:39:51;;;;;;;3.05;1.30;;;;;;;;;;5054402;28;20499;-80
2023/04/11 14:42:17;;;;;;;2.38;0.90;;;;;;;;;;5054285;28;20870;-80